Milden, Canada
Current Conditions -  °F | °C
As of 12:49 AM on Thursday 27 Nov 2014 (Local Time) from CYXE Reporting Station
Overcast Overcast  
Wind Chill: -7°   Ceiling: 500
Heat Index:   Visibility: 15mi
Dew Point:   Wind: 9mph
Humidity: 85%   Direction: 200°SSW
Pressure: 30.23"   Gusts: NA
Location:  51.48°N, 107.52°W
Report Text: CYXE 270649Z 20008KT 15SM OVC005 M14/M16 A3023 RMK SC8 SLP286
Loading
Personal Weather Stations






























Interactive Weather Map New forecast layout! Learn more

10-Day Weather Forecast

Advertisements
Track Severe Weather on mobile